CYHZ

Halifax / Stanfield International Airport

Halifax, Nova Scotia, Canada
METAR CYHZ 221800Z 32015KT 300V010 15SM FEW065 BKN260 11/M04 A3012 RMK CU2CI3 SLP207
Observed Flight Rules
Apr-22 @ 18:00 UTC (22 minutes ago) Visual Flight Rules
Wind Visibility Clouds
320° at 15 knots 15 miles
  • Few at 6,500' AGL
  • Broken at 26,000' AGL
Temperatures Readings
Current 11°C / 52°F
Dewpoint -4°C / 25°F
Humidity 35%
Altimeter 30.12" Hg
Pressure 1020.7 hPa
Elevation 145
METAR CYHZ 221800Z 32015KT 300V010 15SM FEW065 BKN260 11/M04 A3012 RMK CU2CI3 SLP207
Observed Flight Rules
Apr-22 @ 18:00 UTC
(22 minutes ago)
VFR
Wind Visibility
320° at 15 knots 15 miles
Clouds
  • Few at 6,500' AGL
  • Broken at 26,000' AGL
Temperature Dewpoint
11°C / 52°F -4°C / 25°F
Humidity Altimeter Pressure
35% 30.12" Hg 1020.7 hPa